createdAt,value
2019-04-14T00:09:33.633Z,100.00
2019-04-14T00:25:08.566Z,100.00
2019-04-14T00:40:45.355Z,100.00
2019-04-14T00:56:19.448Z,100.00
2019-04-14T01:11:53.459Z,100.00
2019-04-14T01:27:27.780Z,100.00
2019-04-14T01:43:01.794Z,100.00
2019-04-14T01:58:38.175Z,100.00
2019-04-14T02:14:12.511Z,100.00
2019-04-14T02:29:47.252Z,100.00
2019-04-14T02:45:51.372Z,100.00
2019-04-14T03:01:26.032Z,100.00
2019-04-14T03:17:16.181Z,100.00
2019-04-14T03:32:52.990Z,100.00
2019-04-14T03:48:42.848Z,100.00
2019-04-14T04:03:18.036Z,100.00
2019-04-14T04:19:00.858Z,100.00
2019-04-14T04:34:31.635Z,100.00
2019-04-14T04:50:06.535Z,100.00
2019-04-14T05:05:53.566Z,97.05
2019-04-14T05:21:27.765Z,68.39
2019-04-14T05:37:00.850Z,67.72
2019-04-14T05:52:33.974Z,71.07
2019-04-14T06:08:06.685Z,76.96
2019-04-14T06:23:40.581Z,81.57
2019-04-14T06:39:32.110Z,81.11
2019-04-14T06:55:04.904Z,77.07
2019-04-14T07:10:37.952Z,80.61
2019-04-14T07:26:10.949Z,84.41
2019-04-14T07:41:46.886Z,76.11
2019-04-14T07:57:25.540Z,68.82
2019-04-14T08:12:58.566Z,59.37
2019-04-14T08:28:31.638Z,59.16
2019-04-14T09:00:35.142Z,69.25
2019-04-14T09:16:08.488Z,53.73
2019-04-14T09:31:42.235Z,55.77
2019-04-14T09:47:15.711Z,57.57
2019-04-14T10:02:48.876Z,59.14
2019-04-14T10:18:21.942Z,60.68
2019-04-14T10:33:54.863Z,59.07
2019-04-14T10:49:28.032Z,60.30
2019-04-14T11:05:00.935Z,60.22
2019-04-14T11:20:33.842Z,64.62
2019-04-14T11:52:19.126Z,68.08
2019-04-14T12:07:53.922Z,66.13
2019-04-14T12:23:27.755Z,65.48
2019-04-14T12:39:00.986Z,70.96
2019-04-14T12:54:35.042Z,65.71
2019-04-14T13:10:07.834Z,61.29
2019-04-14T13:25:41.120Z,56.00
2019-04-14T13:41:14.097Z,66.16
2019-04-14T13:56:47.293Z,72.19
2019-04-14T14:28:29.203Z,76.25
2019-04-14T14:44:02.885Z,76.39
2019-04-14T14:59:35.778Z,77.56
2019-04-14T15:15:08.843Z,78.18
2019-04-14T15:30:43.094Z,82.52
2019-04-14T15:46:17.135Z,81.06
2019-04-14T16:18:17.596Z,86.18
2019-04-14T16:33:56.831Z,87.34
2019-04-14T16:49:30.660Z,89.31
2019-04-14T17:05:03.875Z,88.88
2019-04-14T17:20:49.210Z,91.98
2019-04-14T17:36:30.592Z,92.20
2019-04-14T18:24:42.632Z,94.29
2019-04-14T18:40:16.170Z,96.86
2019-04-14T18:55:52.099Z,97.65
2019-04-14T19:11:42.192Z,97.12
2019-04-14T19:27:15.546Z,98.25
2019-04-14T19:42:48.633Z,97.46
2019-04-14T19:58:21.767Z,96.39
2019-04-14T20:13:54.772Z,96.74
2019-04-14T20:29:31.969Z,97.34
2019-04-14T20:45:05.795Z,96.90
2019-04-14T21:00:39.776Z,98.79
2019-04-14T21:32:44.742Z,100.00
2019-04-14T21:48:17.958Z,100.00
2019-04-14T22:20:03.181Z,100.00
2019-04-14T22:35:37.672Z,100.00
2019-04-14T22:51:10.696Z,100.00
2019-04-14T23:06:47.409Z,100.00
2019-04-14T23:38:36.582Z,100.00
2019-04-14T23:54:09.803Z,100.00
